sensor_id;sensor_type;location;lat;lon;timestamp;P1;durP1;ratioP1;P2;durP2;ratioP2
76801;SDS011;66403;50.832;10.950;2023-03-20T00:03:21;5.80;;;2.20;;
76801;SDS011;66403;50.832;10.950;2023-03-20T00:08:22;3.10;;;2.28;;
76801;SDS011;66403;50.832;10.950;2023-03-20T00:13:23;2.72;;;2.03;;
76801;SDS011;66403;50.832;10.950;2023-03-20T00:18:25;3.00;;;2.20;;
76801;SDS011;66403;50.832;10.950;2023-03-20T00:23:25;3.22;;;2.17;;
76801;SDS011;66403;50.832;10.950;2023-03-20T00:28:36;4.13;;;2.05;;
76801;SDS011;66403;50.832;10.950;2023-03-20T00:33:39;3.63;;;2.25;;
76801;SDS011;66403;50.832;10.950;2023-03-20T00:38:40;3.47;;;2.30;;
76801;SDS011;66403;50.832;10.950;2023-03-20T00:43:42;2.70;;;2.28;;
76801;SDS011;66403;50.832;10.950;2023-03-20T00:48:42;2.75;;;2.00;;
76801;SDS011;66403;50.832;10.950;2023-03-20T00:53:43;2.80;;;2.30;;
76801;SDS011;66403;50.832;10.950;2023-03-20T00:58:43;3.28;;;2.17;;
76801;SDS011;66403;50.832;10.950;2023-03-20T01:03:44;2.40;;;2.17;;
76801;SDS011;66403;50.832;10.950;2023-03-20T01:08:44;2.72;;;2.33;;
76801;SDS011;66403;50.832;10.950;2023-03-20T01:13:47;3.53;;;2.22;;
76801;SDS011;66403;50.832;10.950;2023-03-20T01:18:48;4.90;;;2.42;;
76801;SDS011;66403;50.832;10.950;2023-03-20T01:23:49;4.80;;;2.58;;
76801;SDS011;66403;50.832;10.950;2023-03-20T01:28:50;2.95;;;1.85;;
76801;SDS011;66403;50.832;10.950;2023-03-20T01:33:51;2.70;;;2.00;;
76801;SDS011;66403;50.832;10.950;2023-03-20T01:38:53;3.03;;;2.30;;
76801;SDS011;66403;50.832;10.950;2023-03-20T01:43:56;5.50;;;2.35;;
76801;SDS011;66403;50.832;10.950;2023-03-20T01:48:58;3.70;;;2.15;;
76801;SDS011;66403;50.832;10.950;2023-03-20T01:59:30;3.45;;;2.40;;
76801;SDS011;66403;50.832;10.950;2023-03-20T02:04:34;4.07;;;1.92;;
76801;SDS011;66403;50.832;10.950;2023-03-20T02:09:41;3.10;;;2.10;;
76801;SDS011;66403;50.832;10.950;2023-03-20T02:14:47;3.65;;;2.72;;
76801;SDS011;66403;50.832;10.950;2023-03-20T02:20:15;4.22;;;2.38;;
76801;SDS011;66403;50.832;10.950;2023-03-20T02:25:27;3.10;;;2.40;;
76801;SDS011;66403;50.832;10.950;2023-03-20T02:31:15;4.90;;;2.50;;
76801;SDS011;66403;50.832;10.950;2023-03-20T02:42:10;3.90;;;2.00;;
76801;SDS011;66403;50.832;10.950;2023-03-20T02:47:52;2.05;;;1.65;;
76801;SDS011;66403;50.832;10.950;2023-03-20T02:58:20;2.65;;;2.30;;
76801;SDS011;66403;50.832;10.950;2023-03-20T03:03:31;3.13;;;2.40;;
76801;SDS011;66403;50.832;10.950;2023-03-20T03:08:36;2.90;;;2.40;;
76801;SDS011;66403;50.832;10.950;2023-03-20T03:13:48;3.08;;;2.45;;
76801;SDS011;66403;50.832;10.950;2023-03-20T03:18:53;2.63;;;2.05;;
76801;SDS011;66403;50.832;10.950;2023-03-20T03:23:59;4.70;;;2.05;;
76801;SDS011;66403;50.832;10.950;2023-03-20T03:29:10;2.10;;;1.90;;
76801;SDS011;66403;50.832;10.950;2023-03-20T03:34:15;3.03;;;2.30;;
76801;SDS011;66403;50.832;10.950;2023-03-20T03:39:25;3.67;;;2.17;;
76801;SDS011;66403;50.832;10.950;2023-03-20T03:49:43;2.67;;;1.98;;
76801;SDS011;66403;50.832;10.950;2023-03-20T03:54:50;2.95;;;2.17;;
76801;SDS011;66403;50.832;10.950;2023-03-20T04:00:05;4.25;;;3.00;;
76801;SDS011;66403;50.832;10.950;2023-03-20T04:05:13;3.90;;;2.30;;
76801;SDS011;66403;50.832;10.950;2023-03-20T04:10:15;4.05;;;2.40;;
76801;SDS011;66403;50.832;10.950;2023-03-20T04:15:15;3.45;;;2.85;;
76801;SDS011;66403;50.832;10.950;2023-03-20T04:20:17;2.70;;;2.05;;
76801;SDS011;66403;50.832;10.950;2023-03-20T04:25:21;5.95;;;2.42;;
76801;SDS011;66403;50.832;10.950;2023-03-20T04:30:25;4.03;;;2.40;;
76801;SDS011;66403;50.832;10.950;2023-03-20T04:35:50;3.40;;;2.50;;
76801;SDS011;66403;50.832;10.950;2023-03-20T04:40:50;3.67;;;2.15;;
76801;SDS011;66403;50.832;10.950;2023-03-20T04:45:52;2.88;;;1.95;;
76801;SDS011;66403;50.832;10.950;2023-03-20T04:50:54;2.58;;;2.20;;
76801;SDS011;66403;50.832;10.950;2023-03-20T04:56:01;3.15;;;1.92;;
76801;SDS011;66403;50.832;10.950;2023-03-20T05:01:03;2.53;;;2.20;;
76801;SDS011;66403;50.832;10.950;2023-03-20T05:06:04;2.38;;;1.92;;
76801;SDS011;66403;50.832;10.950;2023-03-20T05:11:06;4.05;;;2.38;;
76801;SDS011;66403;50.832;10.950;2023-03-20T05:16:26;3.10;;;2.58;;
76801;SDS011;66403;50.832;10.950;2023-03-20T05:21:34;3.42;;;2.13;;
76801;SDS011;66403;50.832;10.950;2023-03-20T05:26:57;3.47;;;2.70;;
76801;SDS011;66403;50.832;10.950;2023-03-20T05:32:16;2.90;;;2.55;;
76801;SDS011;66403;50.832;10.950;2023-03-20T05:37:29;4.50;;;2.70;;
76801;SDS011;66403;50.832;10.950;2023-03-20T05:42:38;2.58;;;2.20;;
76801;SDS011;66403;50.832;10.950;2023-03-20T05:47:51;3.08;;;1.98;;
76801;SDS011;66403;50.832;10.950;2023-03-20T05:53:17;2.72;;;2.22;;
76801;SDS011;66403;50.832;10.950;2023-03-20T05:58:29;4.93;;;2.92;;
76801;SDS011;66403;50.832;10.950;2023-03-20T06:03:57;5.82;;;2.63;;
76801;SDS011;66403;50.832;10.950;2023-03-20T06:09:20;3.90;;;2.42;;
76801;SDS011;66403;50.832;10.950;2023-03-20T06:14:21;2.70;;;2.50;;
76801;SDS011;66403;50.832;10.950;2023-03-20T06:19:29;6.15;;;2.85;;
76801;SDS011;66403;50.832;10.950;2023-03-20T06:24:29;5.28;;;3.35;;
76801;SDS011;66403;50.832;10.950;2023-03-20T06:29:31;4.05;;;2.80;;
76801;SDS011;66403;50.832;10.950;2023-03-20T06:34:43;4.18;;;2.83;;
76801;SDS011;66403;50.832;10.950;2023-03-20T06:39:43;3.70;;;3.05;;
76801;SDS011;66403;50.832;10.950;2023-03-20T06:44:46;4.38;;;3.30;;
76801;SDS011;66403;50.832;10.950;2023-03-20T06:49:48;3.60;;;2.58;;
76801;SDS011;66403;50.832;10.950;2023-03-20T06:54:49;2.53;;;2.33;;
76801;SDS011;66403;50.832;10.950;2023-03-20T06:59:51;2.50;;;2.15;;
76801;SDS011;66403;50.832;10.950;2023-03-20T07:04:51;4.20;;;2.78;;
76801;SDS011;66403;50.832;10.950;2023-03-20T07:09:52;3.58;;;2.50;;
76801;SDS011;66403;50.832;10.950;2023-03-20T07:14:53;3.45;;;2.85;;
76801;SDS011;66403;50.832;10.950;2023-03-20T07:19:54;4.07;;;2.28;;
76801;SDS011;66403;50.832;10.950;2023-03-20T07:24:55;5.07;;;2.67;;
76801;SDS011;66403;50.832;10.950;2023-03-20T07:29:58;5.50;;;3.13;;
76801;SDS011;66403;50.832;10.950;2023-03-20T07:34:59;3.83;;;2.85;;
76801;SDS011;66403;50.832;10.950;2023-03-20T07:40:01;4.68;;;3.15;;
76801;SDS011;66403;50.832;10.950;2023-03-20T07:45:06;4.05;;;2.97;;
76801;SDS011;66403;50.832;10.950;2023-03-20T07:50:09;4.10;;;2.85;;
76801;SDS011;66403;50.832;10.950;2023-03-20T07:55:09;4.35;;;3.30;;
76801;SDS011;66403;50.832;10.950;2023-03-20T08:00:10;3.55;;;2.40;;
76801;SDS011;66403;50.832;10.950;2023-03-20T08:05:14;3.95;;;2.85;;
76801;SDS011;66403;50.832;10.950;2023-03-20T08:10:14;3.63;;;2.70;;
76801;SDS011;66403;50.832;10.950;2023-03-20T08:15:15;3.67;;;2.83;;
76801;SDS011;66403;50.832;10.950;2023-03-20T08:20:16;3.75;;;3.05;;
76801;SDS011;66403;50.832;10.950;2023-03-20T08:25:16;4.25;;;3.15;;
76801;SDS011;66403;50.832;10.950;2023-03-20T08:30:17;3.75;;;2.80;;
76801;SDS011;66403;50.832;10.950;2023-03-20T08:35:17;4.28;;;3.10;;
76801;SDS011;66403;50.832;10.950;2023-03-20T08:40:18;5.13;;;4.07;;
76801;SDS011;66403;50.832;10.950;2023-03-20T08:45:18;3.92;;;3.13;;
76801;SDS011;66403;50.832;10.950;2023-03-20T08:50:19;5.55;;;3.72;;
76801;SDS011;66403;50.832;10.950;2023-03-20T08:55:19;5.53;;;2.97;;
76801;SDS011;66403;50.832;10.950;2023-03-20T09:00:20;6.07;;;3.58;;
76801;SDS011;66403;50.832;10.950;2023-03-20T09:05:20;5.88;;;3.70;;
76801;SDS011;66403;50.832;10.950;2023-03-20T09:10:21;6.28;;;3.88;;
76801;SDS011;66403;50.832;10.950;2023-03-20T09:15:21;4.88;;;4.05;;
76801;SDS011;66403;50.832;10.950;2023-03-20T09:20:22;9.70;;;6.40;;
76801;SDS011;66403;50.832;10.950;2023-03-20T09:25:22;8.98;;;6.18;;
76801;SDS011;66403;50.832;10.950;2023-03-20T09:30:23;8.93;;;6.00;;
76801;SDS011;66403;50.832;10.950;2023-03-20T09:35:24;6.45;;;5.30;;
76801;SDS011;66403;50.832;10.950;2023-03-20T09:40:26;7.53;;;5.15;;
76801;SDS011;66403;50.832;10.950;2023-03-20T09:45:48;8.75;;;5.45;;
76801;SDS011;66403;50.832;10.950;2023-03-20T09:51:01;6.07;;;5.20;;
76801;SDS011;66403;50.832;10.950;2023-03-20T09:56:11;7.60;;;5.32;;
76801;SDS011;66403;50.832;10.950;2023-03-20T10:01:15;7.65;;;4.75;;
76801;SDS011;66403;50.832;10.950;2023-03-20T10:06:16;5.38;;;4.30;;
76801;SDS011;66403;50.832;10.950;2023-03-20T10:11:29;5.28;;;4.30;;
76801;SDS011;66403;50.832;10.950;2023-03-20T10:21:45;7.10;;;4.70;;
76801;SDS011;66403;50.832;10.950;2023-03-20T10:26:49;8.52;;;5.40;;
76801;SDS011;66403;50.832;10.950;2023-03-20T10:31:59;9.65;;;5.47;;
76801;SDS011;66403;50.832;10.950;2023-03-20T10:37:11;7.40;;;4.97;;
76801;SDS011;66403;50.832;10.950;2023-03-20T10:42:21;7.47;;;4.35;;
76801;SDS011;66403;50.832;10.950;2023-03-20T10:47:25;6.78;;;4.28;;
76801;SDS011;66403;50.832;10.950;2023-03-20T10:52:29;7.90;;;4.95;;
76801;SDS011;66403;50.832;10.950;2023-03-20T10:57:33;7.25;;;5.15;;
76801;SDS011;66403;50.832;10.950;2023-03-20T11:02:37;8.10;;;4.70;;
76801;SDS011;66403;50.832;10.950;2023-03-20T11:07:37;6.72;;;4.43;;
76801;SDS011;66403;50.832;10.950;2023-03-20T11:12:47;9.70;;;5.95;;
76801;SDS011;66403;50.832;10.950;2023-03-20T11:17:52;9.95;;;6.22;;
76801;SDS011;66403;50.832;10.950;2023-03-20T11:22:57;10.20;;;6.63;;
76801;SDS011;66403;50.832;10.950;2023-03-20T11:33:42;10.43;;;6.22;;
76801;SDS011;66403;50.832;10.950;2023-03-20T11:38:44;12.15;;;6.28;;
76801;SDS011;66403;50.832;10.950;2023-03-20T11:43:45;13.15;;;7.65;;
76801;SDS011;66403;50.832;10.950;2023-03-20T11:48:45;12.55;;;7.25;;
76801;SDS011;66403;50.832;10.950;2023-03-20T12:03:59;11.13;;;6.50;;
76801;SDS011;66403;50.832;10.950;2023-03-20T12:09:09;12.88;;;6.13;;
76801;SDS011;66403;50.832;10.950;2023-03-20T12:14:16;10.98;;;6.22;;
76801;SDS011;66403;50.832;10.950;2023-03-20T12:19:21;10.95;;;5.97;;
76801;SDS011;66403;50.832;10.950;2023-03-20T12:24:39;8.70;;;4.90;;
76801;SDS011;66403;50.832;10.950;2023-03-20T12:29:47;10.13;;;5.72;;
76801;SDS011;66403;50.832;10.950;2023-03-20T12:34:55;7.65;;;4.57;;
76801;SDS011;66403;50.832;10.950;2023-03-20T12:39:58;7.40;;;4.25;;
76801;SDS011;66403;50.832;10.950;2023-03-20T12:45:09;7.20;;;3.75;;
76801;SDS011;66403;50.832;10.950;2023-03-20T12:55:39;6.75;;;3.75;;
76801;SDS011;66403;50.832;10.950;2023-03-20T13:00:51;5.25;;;2.90;;
76801;SDS011;66403;50.832;10.950;2023-03-20T13:06:01;6.13;;;3.30;;
76801;SDS011;66403;50.832;10.950;2023-03-20T13:22:21;5.72;;;2.83;;
76801;SDS011;66403;50.832;10.950;2023-03-20T13:32:17;10.15;;;4.93;;
76801;SDS011;66403;50.832;10.950;2023-03-20T13:37:39;4.50;;;3.08;;
76801;SDS011;66403;50.832;10.950;2023-03-20T13:42:42;4.75;;;2.65;;
76801;SDS011;66403;50.832;10.950;2023-03-20T13:47:46;5.70;;;2.65;;
76801;SDS011;66403;50.832;10.950;2023-03-20T13:52:53;7.40;;;3.70;;
76801;SDS011;66403;50.832;10.950;2023-03-20T13:58:15;5.50;;;3.35;;
76801;SDS011;66403;50.832;10.950;2023-03-20T14:03:26;5.25;;;3.20;;
76801;SDS011;66403;50.832;10.950;2023-03-20T14:08:32;4.50;;;2.90;;
76801;SDS011;66403;50.832;10.950;2023-03-20T14:13:37;5.20;;;3.17;;
76801;SDS011;66403;50.832;10.950;2023-03-20T14:18:38;4.63;;;2.65;;
76801;SDS011;66403;50.832;10.950;2023-03-20T14:33:59;7.43;;;3.25;;
76801;SDS011;66403;50.832;10.950;2023-03-20T14:49:50;4.65;;;2.75;;
76801;SDS011;66403;50.832;10.950;2023-03-20T14:55:25;4.78;;;3.17;;
76801;SDS011;66403;50.832;10.950;2023-03-20T15:00:27;4.53;;;2.88;;
76801;SDS011;66403;50.832;10.950;2023-03-20T15:05:32;4.97;;;3.50;;
76801;SDS011;66403;50.832;10.950;2023-03-20T15:10:35;4.57;;;2.75;;
76801;SDS011;66403;50.832;10.950;2023-03-20T15:15:37;3.67;;;2.53;;
76801;SDS011;66403;50.832;10.950;2023-03-20T15:20:37;5.97;;;2.20;;
76801;SDS011;66403;50.832;10.950;2023-03-20T15:25:42;5.65;;;3.60;;
76801;SDS011;66403;50.832;10.950;2023-03-20T15:30:44;4.63;;;3.38;;
76801;SDS011;66403;50.832;10.950;2023-03-20T15:35:45;5.68;;;3.25;;
76801;SDS011;66403;50.832;10.950;2023-03-20T15:40:46;7.03;;;3.75;;
76801;SDS011;66403;50.832;10.950;2023-03-20T15:45:46;5.25;;;3.20;;
76801;SDS011;66403;50.832;10.950;2023-03-20T15:50:48;6.32;;;3.47;;
76801;SDS011;66403;50.832;10.950;2023-03-20T15:56:01;5.80;;;3.03;;
76801;SDS011;66403;50.832;10.950;2023-03-20T16:01:04;7.03;;;3.53;;
76801;SDS011;66403;50.832;10.950;2023-03-20T16:06:07;5.55;;;3.10;;
76801;SDS011;66403;50.832;10.950;2023-03-20T16:11:12;7.13;;;3.90;;
76801;SDS011;66403;50.832;10.950;2023-03-20T16:16:18;8.45;;;3.80;;
76801;SDS011;66403;50.832;10.950;2023-03-20T16:21:22;5.43;;;3.20;;
76801;SDS011;66403;50.832;10.950;2023-03-20T16:26:26;6.57;;;4.10;;
76801;SDS011;66403;50.832;10.950;2023-03-20T16:31:30;7.30;;;4.03;;
76801;SDS011;66403;50.832;10.950;2023-03-20T16:36:37;5.60;;;3.90;;
76801;SDS011;66403;50.832;10.950;2023-03-20T16:41:38;8.20;;;3.63;;
76801;SDS011;66403;50.832;10.950;2023-03-20T16:47:39;6.07;;;3.50;;
76801;SDS011;66403;50.832;10.950;2023-03-20T16:52:22;4.80;;;3.17;;
76801;SDS011;66403;50.832;10.950;2023-03-20T16:57:26;6.72;;;3.67;;
76801;SDS011;66403;50.832;10.950;2023-03-20T17:02:29;10.18;;;5.68;;
76801;SDS011;66403;50.832;10.950;2023-03-20T17:07:32;8.18;;;4.38;;
76801;SDS011;66403;50.832;10.950;2023-03-20T17:12:32;8.02;;;4.47;;
76801;SDS011;66403;50.832;10.950;2023-03-20T17:17:32;8.60;;;4.13;;
76801;SDS011;66403;50.832;10.950;2023-03-20T17:22:33;6.10;;;3.67;;
76801;SDS011;66403;50.832;10.950;2023-03-20T17:27:34;7.22;;;4.20;;
76801;SDS011;66403;50.832;10.950;2023-03-20T17:32:36;7.07;;;3.75;;
76801;SDS011;66403;50.832;10.950;2023-03-20T17:37:37;6.35;;;3.70;;
76801;SDS011;66403;50.832;10.950;2023-03-20T17:42:37;3.80;;;2.85;;
76801;SDS011;66403;50.832;10.950;2023-03-20T17:47:38;8.30;;;4.35;;
76801;SDS011;66403;50.832;10.950;2023-03-20T17:52:39;7.93;;;4.30;;
76801;SDS011;66403;50.832;10.950;2023-03-20T17:57:40;6.82;;;4.07;;
76801;SDS011;66403;50.832;10.950;2023-03-20T18:02:41;7.40;;;4.00;;
76801;SDS011;66403;50.832;10.950;2023-03-20T18:07:41;7.15;;;3.70;;
76801;SDS011;66403;50.832;10.950;2023-03-20T18:12:42;5.55;;;3.50;;
76801;SDS011;66403;50.832;10.950;2023-03-20T18:17:42;4.57;;;2.83;;
76801;SDS011;66403;50.832;10.950;2023-03-20T18:22:43;3.88;;;2.85;;
76801;SDS011;66403;50.832;10.950;2023-03-20T18:27:43;7.30;;;3.28;;
76801;SDS011;66403;50.832;10.950;2023-03-20T18:32:44;7.65;;;2.95;;
76801;SDS011;66403;50.832;10.950;2023-03-20T18:37:44;4.75;;;3.03;;
76801;SDS011;66403;50.832;10.950;2023-03-20T18:42:45;9.30;;;2.90;;
76801;SDS011;66403;50.832;10.950;2023-03-20T18:47:45;5.80;;;2.80;;
76801;SDS011;66403;50.832;10.950;2023-03-20T18:52:46;6.05;;;3.17;;
76801;SDS011;66403;50.832;10.950;2023-03-20T18:57:46;6.82;;;3.88;;
76801;SDS011;66403;50.832;10.950;2023-03-20T19:02:48;6.18;;;2.97;;
76801;SDS011;66403;50.832;10.950;2023-03-20T19:07:50;6.65;;;2.78;;
76801;SDS011;66403;50.832;10.950;2023-03-20T19:12:51;5.32;;;3.72;;
76801;SDS011;66403;50.832;10.950;2023-03-20T19:17:52;5.72;;;2.42;;
76801;SDS011;66403;50.832;10.950;2023-03-20T19:22:53;4.03;;;2.20;;
76801;SDS011;66403;50.832;10.950;2023-03-20T19:27:53;3.60;;;2.55;;
76801;SDS011;66403;50.832;10.950;2023-03-20T19:32:54;3.97;;;2.30;;
76801;SDS011;66403;50.832;10.950;2023-03-20T19:37:54;3.95;;;2.05;;
76801;SDS011;66403;50.832;10.950;2023-03-20T19:42:55;4.65;;;2.25;;
76801;SDS011;66403;50.832;10.950;2023-03-20T19:47:56;2.78;;;1.95;;
76801;SDS011;66403;50.832;10.950;2023-03-20T19:52:57;4.30;;;1.90;;
76801;SDS011;66403;50.832;10.950;2023-03-20T19:57:58;3.20;;;2.00;;
76801;SDS011;66403;50.832;10.950;2023-03-20T20:02:59;2.45;;;1.88;;
76801;SDS011;66403;50.832;10.950;2023-03-20T20:08:02;2.50;;;1.20;;
76801;SDS011;66403;50.832;10.950;2023-03-20T20:13:04;3.28;;;1.50;;
76801;SDS011;66403;50.832;10.950;2023-03-20T20:18:05;1.83;;;1.20;;
76801;SDS011;66403;50.832;10.950;2023-03-20T20:23:07;3.38;;;1.60;;
76801;SDS011;66403;50.832;10.950;2023-03-20T20:28:09;1.95;;;1.52;;
76801;SDS011;66403;50.832;10.950;2023-03-20T20:33:11;3.97;;;1.17;;
76801;SDS011;66403;50.832;10.950;2023-03-20T20:38:12;2.00;;;1.30;;
76801;SDS011;66403;50.832;10.950;2023-03-20T20:43:12;3.97;;;2.55;;
76801;SDS011;66403;50.832;10.950;2023-03-20T20:48:13;3.05;;;1.85;;
76801;SDS011;66403;50.832;10.950;2023-03-20T20:53:13;1.73;;;1.15;;
76801;SDS011;66403;50.832;10.950;2023-03-20T20:58:14;1.80;;;1.13;;
76801;SDS011;66403;50.832;10.950;2023-03-20T21:03:14;2.28;;;1.17;;
76801;SDS011;66403;50.832;10.950;2023-03-20T21:08:15;3.78;;;1.60;;
76801;SDS011;66403;50.832;10.950;2023-03-20T21:13:17;3.00;;;1.70;;
76801;SDS011;66403;50.832;10.950;2023-03-20T21:18:18;2.72;;;1.17;;
76801;SDS011;66403;50.832;10.950;2023-03-20T21:23:18;3.08;;;1.92;;
76801;SDS011;66403;50.832;10.950;2023-03-20T21:28:19;2.22;;;0.93;;
76801;SDS011;66403;50.832;10.950;2023-03-20T21:33:19;1.58;;;1.05;;
76801;SDS011;66403;50.832;10.950;2023-03-20T21:38:20;1.73;;;1.10;;
76801;SDS011;66403;50.832;10.950;2023-03-20T21:43:21;1.73;;;0.90;;
76801;SDS011;66403;50.832;10.950;2023-03-20T21:48:21;1.70;;;0.90;;
76801;SDS011;66403;50.832;10.950;2023-03-20T21:53:22;1.30;;;1.05;;
76801;SDS011;66403;50.832;10.950;2023-03-20T21:58:22;1.52;;;0.98;;
76801;SDS011;66403;50.832;10.950;2023-03-20T22:03:23;1.58;;;0.80;;
76801;SDS011;66403;50.832;10.950;2023-03-20T22:08:23;1.40;;;0.82;;
76801;SDS011;66403;50.832;10.950;2023-03-20T22:13:24;1.95;;;0.98;;
76801;SDS011;66403;50.832;10.950;2023-03-20T22:18:25;2.13;;;0.52;;
76801;SDS011;66403;50.832;10.950;2023-03-20T22:23:26;2.97;;;0.70;;
76801;SDS011;66403;50.832;10.950;2023-03-20T22:28:29;3.70;;;1.25;;
76801;SDS011;66403;50.832;10.950;2023-03-20T22:33:31;1.10;;;0.80;;
76801;SDS011;66403;50.832;10.950;2023-03-20T22:38:31;2.47;;;1.17;;
76801;SDS011;66403;50.832;10.950;2023-03-20T22:43:31;1.08;;;0.93;;
76801;SDS011;66403;50.832;10.950;2023-03-20T22:48:32;4.30;;;0.93;;
76801;SDS011;66403;50.832;10.950;2023-03-20T22:53:32;2.53;;;0.90;;
76801;SDS011;66403;50.832;10.950;2023-03-20T22:58:33;1.60;;;0.90;;
76801;SDS011;66403;50.832;10.950;2023-03-20T23:03:33;1.20;;;0.80;;
76801;SDS011;66403;50.832;10.950;2023-03-20T23:08:34;2.33;;;1.05;;
76801;SDS011;66403;50.832;10.950;2023-03-20T23:13:35;1.80;;;0.93;;
76801;SDS011;66403;50.832;10.950;2023-03-20T23:18:36;1.75;;;0.80;;
76801;SDS011;66403;50.832;10.950;2023-03-20T23:23:36;1.10;;;0.70;;
76801;SDS011;66403;50.832;10.950;2023-03-20T23:28:38;4.22;;;1.15;;
76801;SDS011;66403;50.832;10.950;2023-03-20T23:33:39;3.17;;;1.02;;
76801;SDS011;66403;50.832;10.950;2023-03-20T23:38:41;1.77;;;1.00;;
76801;SDS011;66403;50.832;10.950;2023-03-20T23:43:41;1.52;;;1.00;;
76801;SDS011;66403;50.832;10.950;2023-03-20T23:48:42;1.88;;;0.98;;
76801;SDS011;66403;50.832;10.950;2023-03-20T23:53:42;2.15;;;1.20;;
76801;SDS011;66403;50.832;10.950;2023-03-20T23:58:43;4.32;;;1.45;;
